• Join FlightAware (Why Join?)
  • Login
  • US Flag 
07:17PM EDT


 

Airport Tracker/Info


-or-


 

Live Flight TrackerFlight Track Log ✈ SWA3587 ✈ 23-Aug-2014 ✈ KDCA - KMDW

Flight Track Log - Related Links

Times and Time Zones

All times are in EDT time to prevent confusion due to time zone crossing. See the SWA3587 flight status page for this flight to view local times or setup timezone preferences in your user account.

Time Position Orientation Groundspeed Altitude Reporting Facility
EDT Latitude Longitude Course Direction KTS MPH feet Rate Location/Type
09:15PM 38.8825 -77.0586 317° Northwest 181 208 1,700  Level Washington Center
09:16PM 38.9303 -77.1150 317° Northwest 239 275 5,200 4,200 Climbing Washington Center
09:17PM 38.9792 -77.1886 311° West 273 314 10,500 3,900 Climbing Washington Center
09:18PM 38.9772 -77.3083 269° West 331 381 13,400 3,360 Climbing Washington Center
09:19PM 38.9761 -77.4456 269° West 373 429 17,400 4,380 Climbing Washington Center
09:20PM 38.9736 -77.5944 269° West 376 433 22,300 3,900 Climbing Washington Center
09:21PM 38.9708 -77.7267 268° West 374 430 25,500 2,940 Climbing Washington Center
09:22PM 38.9683 -77.8633 269° West 382 440 28,500 2,340 Climbing Washington Center
09:23PM 38.9656 -78.0122 269° West 400 460 30,300 1,800 Climbing Washington Center
09:24PM 38.9619 -78.1661 268° West 428 493 32,200 1,980 Climbing Washington Center
09:25PM 38.9669 -78.3156 273° West 417 480 34,400 2,760 Climbing Washington Center
09:26PM 38.9775 -78.4839 275° West 392 451 37,900 2,520 Climbing Washington Center
09:27PM 38.9867 -78.6203 275° West 386 444 39,600 1,020 Climbing Washington Center
09:28PM 38.9964 -78.7603 275° West 392 451 40,000 180 Climbing Washington Center
09:29PM 39.0325 -78.8900 290° West 383 441 40,000  Level Washington Center
09:30PM 39.0756 -79.0172 294° West 383 441 40,000  Level Washington Center
09:31PM 39.1194 -79.1436 294° West 384 442 40,000  Level Washington Center
09:32PM 39.1603 -79.2669 293° West 387 445 40,000  Level Washington Center
09:33PM 39.2047 -79.3947 294° West 389 448 40,000  Level Washington Center
09:34PM 39.2389 -79.4964 293° West 388 447 40,000  Level Cleveland Center
09:35PM 39.2819 -79.6228 294° West 388 447 40,000  Level Cleveland Center
09:36PM 39.3256 -79.7511 294° West 388 447 40,000  Level Cleveland Center
09:37PM 39.3681 -79.8806 293° West 389 448 40,000  Level Cleveland Center
09:38PM 39.4197 -80.0358 293° West 390 449 40,000  Level Cleveland Center
09:39PM 39.4617 -80.1647 293° West 390 449 40,000  Level Cleveland Center
09:40PM 39.5058 -80.2942 294° West 390 449 40,000  Level Cleveland Center
09:41PM 39.5481 -80.4272 292° West 395 455 40,000  Level Cleveland Center
09:42PM 39.5922 -80.5583 294° West 397 457 40,000  Level Cleveland Center
09:43PM 39.6347 -80.6908 293° West 397 457 40,000  Level Cleveland Center
09:44PM 39.6764 -80.8217 293° West 396 456 40,000  Level Cleveland Center
09:45PM 39.7197 -80.9522 293° West 396 456 40,000  Level Cleveland Center
09:46PM 39.7606 -81.0819 292° West 391 450 40,000  Level Cleveland Center
09:47PM 39.8025 -81.2119 293° West 390 449 40,000  Level Cleveland Center
09:48PM 39.8431 -81.3392 293° West 388 447 40,000  Level Cleveland Center
09:49PM 39.8881 -81.4803 293° West 383 441 40,000  Level Indianapolis Center
09:50PM 39.9283 -81.6089 292° West 383 441 40,000  Level Indianapolis Center
09:51PM 39.9675 -81.7372 292° West 383 441 40,000  Level Indianapolis Center
09:52PM 40.0078 -81.8653 292° West 383 441 40,000  Level Indianapolis Center
09:53PM 40.0472 -81.9958 292° West 383 441 40,000  Level Indianapolis Center
09:54PM 40.0881 -82.1258 292° West 385 443 40,000  Level Indianapolis Center
09:55PM 40.1300 -82.2561 293° West 387 445 40,000  Level Indianapolis Center
09:56PM 40.1689 -82.3875 291° West 388 447 40,000  Level Indianapolis Center
09:57PM 40.2086 -82.5175 292° West 388 447 40,000  Level Indianapolis Center
09:58PM 40.2492 -82.6500 292° West 389 448 40,000  Level Indianapolis Center
09:59PM 40.2964 -82.8072 292° West 389 448 40,000 -540 Level Indianapolis Center
10:00PM 40.3364 -82.9397 292° West 389 448 39,000 -960 Descending Indianapolis Center
10:01PM 40.3764 -83.0744 291° West 396 456 38,100 -540 Descending Indianapolis Center
10:02PM 40.4167 -83.2103 291° West 398 458 38,000 -60 Descending Indianapolis Center
10:03PM 40.4564 -83.3442 291° West 398 458 38,000  Level Indianapolis Center
10:04PM 40.4956 -83.4794 291° West 398 458 38,000  Level Indianapolis Center
10:05PM 40.5344 -83.6147 291° West 398 458 38,000  Level Indianapolis Center
10:06PM 40.5742 -83.7511 291° West 398 458 38,000  Level Indianapolis Center
10:07PM 40.6144 -83.8886 291° West 399 459 38,000  Level Indianapolis Center
10:08PM 40.6536 -84.0283 290° West 406 467 38,000  Level Indianapolis Center
10:09PM 40.6942 -84.1689 291° West 409 471 38,000  Level Indianapolis Center
10:10PM 40.7342 -84.3114 290° West 412 474 38,000  Level Indianapolis Center
10:11PM 40.7758 -84.4564 291° West 418 481 38,000 -300 Level Indianapolis Center
10:12PM 40.8242 -84.6314 290° West 422 486 37,500 -780 Descending Indianapolis Center
10:13PM 40.8653 -84.7753 291° West 422 486 36,500 -1,020 Descending Indianapolis Center
10:14PM 40.9272 -84.9036 303° West 421 484 35,500 -1,020 Descending Indianapolis Center
10:15PM 40.9964 -85.0358 305° West 421 484 34,500 -1,020 Descending Indianapolis Center
10:16PM 41.0633 -85.1644 305° West 422 486 33,500 -960 Descending Indianapolis Center
10:17PM 41.1306 -85.2950 304° West 427 491 32,600 -1,200 Descending Indianapolis Center
10:18PM 41.1969 -85.4258 304° West 427 491 31,100 -1,980 Descending Indianapolis Center
10:19PM 41.2633 -85.5547 304° West 427 491 28,700 -1,680 Descending Indianapolis Center
10:20PM 41.3278 -85.6808 304° West 421 484 27,800 -1,500 Descending Indianapolis Center
10:21PM 41.3908 -85.8061 304° West 413 475 25,700 -1,980 Descending Indianapolis Center
10:22PM 41.4458 -85.9292 301° West 390 449 23,800 -2,460 Descending Indianapolis Center
10:23PM 41.4561 -86.0733 275° West 388 447 20,800 -2,760 Descending Indianapolis Center
10:24PM 41.4647 -86.2133 275° West 387 445 18,300 -2,520 Descending Indianapolis Center
10:26PM 41.4733 -86.3917 274° West 360 414 14,900 -2,520 Descending Chicago Center
10:27PM 41.4808 -86.5219 274° West 354 407 12,400 -1,920 Descending Chicago Center
10:28PM 41.4886 -86.6442 275° West 335 386 11,000 -1,140 Descending Chicago Center
10:29PM 41.4975 -86.7808 275° West 305 351 10,100 -480 Descending Chicago Center
10:30PM 41.5028 -86.8836 274° West 280 322 10,100 -660 Level Chicago Center
10:31PM 41.5078 -86.9831 274° West 271 312 8,800 -1,440 Descending Chicago Center
10:32PM 41.5125 -87.0808 274° West 269 310 7,200 -1,380 Descending Chicago Center
10:33PM 41.5175 -87.1764 274° West 262 302 6,100 -1,200 Descending Chicago Center
10:34PM 41.5239 -87.2719 275° West 260 299 4,800 -1,020 Descending Chicago Center
10:35PM 41.5328 -87.3767 277° West 263 303 4,100 -360 Descending Chicago Center
10:36PM 41.5475 -87.4700 282° West 262 302 4,100  Level Chicago Center
10:37PM 41.5686 -87.5603 287° West 259 298 4,100 -360 Level Chicago Center
10:38PM 41.5917 -87.6475 289° West 255 293 3,400 -780 Descending Chicago Center
10:39PM 41.6367 -87.7169 311° West 252 290 2,600 -420 Descending Chicago Center
10:40PM 41.6761 -87.7817 309° West 213 245 2,600 -60 Level Chicago Center
10:41PM 41.7078 -87.8311 311° West 178 205 2,500 -420 Descending Chicago Center
10:42PM 41.7403 -87.8083 28° Northeast 147 169 1,800 -720 Descending Chicago Center
10:43PM 41.7661 -87.7756 43° Northeast 130 150 1,100 -540 Descending Chicago Center
10:44PM 41.7922 -87.7439 42° Northeast 130 150 800 -300 Descending Chicago Center